首页
METAR-TAF:

METAR-TAF

机场 :

富國國際機場

富國島, 越南

纬度: 10-10-18N, 经度: 103-59-28E, 海拔: 11米

当前天气观测

该预报发布于34分钟前的13:00 UTC
风速9节,风向西
温度 28°C
湿度 79%
气压 1009 hPa
能见度10公里或以上
散云层高于1500英尺

METAR: VVPQ 171300Z 27009KT 9999 SCT015 28/24 Q1009 NOSIG

时间: 20:34 (13:34 UTC)

预报

该预报发布于2小时和34分钟前的11:00 UTC
预报有效从17日的 12点(UTC)到 18日的 12点(UTC)
风速10节,风向西转西南
能见度10公里或以上
散云层高于1500英尺
短暂存在
从 17日的 23点(UTC)到 18日的 02点(UTC)
能見度: 5000
多云层高于1500英尺
少量云层高于1700英尺, 积雨云.
雷暴, 雨,

TAF: VVPQ 171100Z 1712/1812 25010KT 9999 SCT015 TEMPO 1723/1802 5000 TSRA BKN015 FEW017CB

超过4000个机场的气象观测和天气预报(METAR&TAF报告)。

可查询的气象台以黄色和红色小点在地图上表示。

将鼠标移到小点上方,可查看气象台名称。

然后点击查看天气观测和预报。

如需切换地图:点击带黑十字的绿色按钮放大地图;点击带横线的绿色按钮缩小地图;或者点击绿色箭头查看邻近地区的地图。


METAR-TAF: